Time;durP1;ratioP1;P1;durP2;ratioP2;P2;SDS_P1;SDS_P2;PMS_P1;PMS_P2;Temp;Humidity;BMP_temperature;BMP_pressure;BME280_temperature;BME280_humidity;BME280_pressure;Samples;Min_cycle;Max_cycle;Signal;HPM_P1;HPM_P2
2021/10/09 00:04:14;;;;;;;38.35;21.63;;;;;;;8.85;76.39;101914.59;8432550;33;20158;-74
2021/10/09 00:09:18;;;;;;;31.98;18.75;;;;;;;8.75;76.55;101906.16;8428388;33;20557;-76
2021/10/09 00:14:22;;;;;;;31.48;17.80;;;;;;;8.25;77.54;101913.91;8432098;33;20515;-75
2021/10/09 00:19:26;;;;;;;28.70;16.77;;;;;;;8.01;78.50;101910.53;8431565;33;20462;-76
2021/10/09 00:24:29;;;;;;;32.28;18.63;;;;;;;8.10;78.34;101913.69;8407763;33;20424;-75
2021/10/09 00:29:33;;;;;;;30.10;18.48;;;;;;;8.21;77.92;101909.63;8443823;33;20833;-76
2021/10/09 00:34:37;;;;;;;29.52;18.00;;;;;;;8.29;77.63;101905.66;8443684;33;20172;-76
2021/10/09 00:39:40;;;;;;;31.98;18.17;;;;;;;8.25;77.50;101913.91;8437400;33;20185;-76
2021/10/09 00:44:45;;;;;;;36.45;18.90;;;;;;;8.21;77.56;101913.19;8406297;33;20475;-75
2021/10/09 00:49:49;;;;;;;31.88;19.23;;;;;;;8.30;77.34;101910.06;8405543;33;20414;-75
2021/10/09 00:54:56;;;;;;;33.22;19.65;;;;;;;7.77;78.76;101913.41;8423262;33;21032;-76
2021/10/09 01:00:00;;;;;;;33.83;19.30;;;;;;;7.27;80.28;101917.38;8399631;33;22069;-75
2021/10/09 01:05:07;;;;;;;35.00;20.13;;;;;;;7.48;79.80;101912.88;8423603;33;20465;-76
2021/10/09 01:10:10;;;;;;;35.40;19.50;;;;;;;7.50;79.61;101902.13;8425340;33;21899;-75
2021/10/09 01:15:19;;;;;;;33.95;18.95;;;;;;;7.22;80.26;101905.16;8429230;33;20420;-76
2021/10/09 01:20:24;;;;;;;35.88;19.45;;;;;;;7.21;80.81;101903.38;8428812;33;20996;-76
2021/10/09 01:25:28;;;;;;;34.95;18.83;;;;;;;7.21;80.76;101912.31;8417081;33;20588;-76
2021/10/09 01:30:33;;;;;;;34.70;19.70;;;;;;;7.34;80.37;101917.97;8425311;33;20141;-76
2021/10/09 01:35:49;;;;;;;35.83;19.20;;;;;;;7.36;80.14;101899.22;8448238;33;20202;-75
2021/10/09 01:40:57;;;;;;;38.03;20.48;;;;;;;7.38;80.03;101906.22;8449278;33;21199;-75
2021/10/09 01:46:00;;;;;;;40.53;21.55;;;;;;;7.44;79.95;101899.75;8424875;33;20505;-76
2021/10/09 01:51:09;;;;;;;37.28;20.58;;;;;;;7.39;79.99;101899.06;8411145;33;20424;-75
2021/10/09 01:56:13;;;;;;;39.33;20.90;;;;;;;7.30;80.16;101888.78;8433256;33;20879;-75
2021/10/09 02:01:16;;;;;;;38.08;21.48;;;;;;;7.38;80.05;101883.97;8411571;33;20329;-75
2021/10/09 02:06:21;;;;;;;39.00;21.25;;;;;;;7.34;79.93;101883.22;8412513;33;20447;-75
2021/10/09 02:11:36;;;;;;;37.88;23.02;;;;;;;7.28;79.67;101875.47;8436357;33;20422;-75
2021/10/09 02:17:05;;;;;;;41.53;22.92;;;;;;;7.20;80.10;101875.81;8413373;33;20153;-75
2021/10/09 02:27:31;;;;;;;209.35;35.53;;;;;;;6.83;81.17;101879.16;8425939;33;20187;-76
2021/10/09 02:32:34;;;;;;;72.00;25.63;;;;;;;6.66;81.63;101873.63;8429190;33;20452;-76
2021/10/09 02:37:39;;;;;;;102.75;28.27;;;;;;;6.61;81.74;101873.81;8454231;33;20192;-75
2021/10/09 02:42:46;;;;;;;46.72;24.23;;;;;;;6.64;82.16;101871.03;8431497;33;20517;-76
2021/10/09 02:47:50;;;;;;;53.90;26.08;;;;;;;6.59;82.01;101867.66;8466855;33;20146;-76
2021/10/09 02:52:56;;;;;;;53.38;24.65;;;;;;;6.55;81.78;101866.03;8470723;33;20408;-75
2021/10/09 02:58:00;;;;;;;37.47;20.13;;;;;;;6.51;80.87;101869.78;8423665;33;20153;-75
2021/10/09 03:03:04;;;;;;;32.15;19.33;;;;;;;6.45;80.42;101857.56;8447370;33;20185;-76
2021/10/09 03:08:09;;;;;;;32.75;19.63;;;;;;;6.54;80.13;101858.97;8446896;33;20523;-76
2021/10/09 03:13:13;;;;;;;35.38;20.63;;;;;;;6.49;79.77;101861.81;8440843;33;20453;-76
2021/10/09 03:18:18;;;;;;;56.75;23.25;;;;;;;6.35;80.31;101864.19;8409060;33;20720;-76
2021/10/09 03:23:25;;;;;;;53.30;22.17;;;;;;;6.15;81.25;101863.16;8440518;33;20427;-76
2021/10/09 03:28:28;;;;;;;109.25;27.38;;;;;;;5.98;82.76;101860.28;8433868;33;21174;-76
2021/10/09 03:33:32;;;;;;;105.15;26.55;;;;;;;6.07;82.61;101875.06;8430442;33;20169;-75
2021/10/09 03:38:37;;;;;;;200.82;33.47;;;;;;;5.92;82.78;101863.16;8406329;33;20154;-75
2021/10/09 03:43:42;;;;;;;41.72;20.92;;;;;;;5.83;82.55;101867.06;8430876;33;20926;-76
2021/10/09 03:48:54;;;;;;;50.55;22.98;;;;;;;5.82;82.38;101859.13;8408916;33;20718;-75
2021/10/09 03:54:03;;;;;;;42.15;20.23;;;;;;;5.66;81.49;101861.50;8431410;33;20220;-76
2021/10/09 03:59:08;;;;;;;34.97;17.92;;;;;;;5.54;81.30;101878.81;8443320;33;20269;-76
2021/10/09 04:04:11;;;;;;;31.48;18.90;;;;;;;5.55;81.83;101871.69;8422794;33;20516;-76
2021/10/09 04:09:17;;;;;;;28.08;16.83;;;;;;;5.62;80.38;101870.53;8445142;33;20411;-75
2021/10/09 04:14:21;;;;;;;30.90;17.52;;;;;;;5.63;79.98;101870.47;8408296;33;20612;-75
2021/10/09 04:19:24;;;;;;;32.95;17.70;;;;;;;5.76;79.86;101878.91;8407111;33;20595;-75
2021/10/09 04:24:29;;;;;;;36.75;19.48;;;;;;;5.73;79.27;101877.22;8428371;33;20155;-75
2021/10/09 04:29:34;;;;;;;42.20;19.75;;;;;;;5.79;78.73;101883.22;8427770;33;20185;-76
2021/10/09 04:34:37;;;;;;;44.10;18.20;;;;;;;5.74;78.42;101888.75;8406016;33;20150;-75
2021/10/09 04:39:42;;;;;;;35.30;17.73;;;;;;;5.68;79.21;101884.50;8405966;33;20485;-76
2021/10/09 04:44:45;;;;;;;48.53;19.83;;;;;;;5.84;79.23;101886.59;8404543;33;20419;-75
2021/10/09 04:49:49;;;;;;;33.28;18.60;;;;;;;6.04;79.64;101885.88;8428530;33;20443;-75
2021/10/09 04:54:53;;;;;;;100.03;25.10;;;;;;;6.14;79.77;101884.56;8406009;33;20939;-76
2021/10/09 04:59:56;;;;;;;79.20;24.30;;;;;;;6.17;80.15;101887.09;8428893;33;20418;-75
2021/10/09 05:05:01;;;;;;;85.10;22.10;;;;;;;6.11;80.48;101887.34;8427598;33;21016;-76
2021/10/09 05:10:09;;;;;;;68.95;20.50;;;;;;;5.90;80.13;101889.91;8407126;33;21434;-75
2021/10/09 05:15:32;;;;;;;90.70;22.73;;;;;;;5.83;80.42;101890.19;8424214;33;20299;-75
2021/10/09 05:20:37;;;;;;;103.82;24.05;;;;;;;5.97;81.05;101892.34;8398199;33;20980;-75
2021/10/09 05:25:43;;;;;;;34.00;18.60;;;;;;;6.10;80.80;101885.63;8396387;33;20269;-75
2021/10/09 05:30:48;;;;;;;32.25;18.50;;;;;;;6.15;80.55;101894.31;8399535;33;20482;-75
2021/10/09 05:35:51;;;;;;;45.42;19.52;;;;;;;6.29;80.59;101900.00;8424654;33;20419;-75
2021/10/09 05:40:57;;;;;;;59.13;21.42;;;;;;;6.38;79.98;101896.94;8429664;33;20445;-75
2021/10/09 05:46:04;;;;;;;46.35;20.50;;;;;;;6.42;79.67;101904.84;8399356;33;20484;-75
2021/10/09 05:51:11;;;;;;;76.93;21.70;;;;;;;6.33;79.36;101904.25;8397112;33;20165;-75
2021/10/09 05:56:24;;;;;;;80.97;24.88;;;;;;;6.33;79.70;101912.28;8423431;33;20411;-75
2021/10/09 06:44:43;;;;;;;66.85;23.48;;;;;;;6.98;79.34;101945.31;8380183;33;20412;-75
2021/10/09 07:00:27;;;;;;;45.80;24.65;;;;;;;7.26;79.49;101945.03;8390821;34;21895;-74
2021/10/09 07:05:33;;;;;;;69.97;25.65;;;;;;;7.24;78.48;101951.38;8355236;34;20194;-74
2021/10/09 07:11:01;;;;;;;86.85;26.38;;;;;;;7.17;78.85;101944.56;8376688;33;21040;-74
2021/10/09 07:16:06;;;;;;;121.43;28.27;;;;;;;7.19;78.49;101943.56;8410446;33;20312;-76
2021/10/09 07:21:11;;;;;;;53.17;22.58;;;;;;;7.21;79.17;101949.72;8409404;33;20171;-76
2021/10/09 07:26:14;;;;;;;69.80;23.38;;;;;;;7.32;78.29;101951.06;8430832;33;21900;-75
2021/10/09 07:31:19;;;;;;;24.63;12.45;;;;;;;7.44;78.34;101955.88;8433782;33;21051;-75
2021/10/09 07:36:22;;;;;;;44.38;22.83;;;;;;;7.70;77.77;101952.94;8433205;33;20158;-75
2021/10/09 07:41:25;;;;;;;35.58;18.42;;;;;;;7.95;76.81;101960.75;8455069;33;20252;-75
2021/10/09 07:46:29;;;;;;;47.55;18.30;;;;;;;8.07;75.66;101963.81;8447002;33;20196;-76
2021/10/09 07:51:32;;;;;;;37.63;18.20;;;;;;;8.10;75.39;101969.03;8446867;33;20442;-75
2021/10/09 07:56:35;;;;;;;40.92;19.25;;;;;;;7.87;74.49;101972.72;8446316;33;21040;-75
2021/10/09 08:01:40;;;;;;;34.83;19.60;;;;;;;7.99;74.30;101968.66;8440974;33;20426;-76
2021/10/09 08:06:43;;;;;;;31.85;18.08;;;;;;;8.10;73.47;101966.34;8434567;33;21003;-75
2021/10/09 08:11:47;;;;;;;38.22;17.42;;;;;;;8.28;73.85;101968.19;8429702;33;20444;-73
2021/10/09 08:16:52;;;;;;;35.50;18.30;;;;;;;8.25;73.20;101975.47;8408725;33;20258;-75
2021/10/09 08:21:56;;;;;;;37.35;17.65;;;;;;;8.04;73.21;101982.69;8432785;33;20142;-75
2021/10/09 08:27:09;;;;;;;40.55;19.23;;;;;;;8.28;74.85;101986.03;8426334;33;20611;-75
2021/10/09 08:42:55;;;;;;;35.20;18.80;;;;;;;8.81;70.76;101991.59;8406740;33;20208;-75
2021/10/09 08:47:59;;;;;;;41.10;22.02;;;;;;;10.27;68.13;101994.03;8397003;33;20190;-74
2021/10/09 08:53:09;;;;;;;41.42;23.38;;;;;;;10.21;66.11;101995.22;8375242;34;20540;-74
2021/10/09 08:58:31;;;;;;;39.72;20.90;;;;;;;9.75;67.32;101994.09;8374610;34;20230;-75
2021/10/09 09:09:28;;;;;;;44.50;24.55;;;;;;;10.48;67.99;101981.25;8341099;34;20885;-74
2021/10/09 09:25:51;;;;;;;43.92;23.77;;;;;;;13.27;58.46;101967.72;8396437;33;20686;-75
2021/10/09 09:31:09;;;;;;;34.30;20.27;;;;;;;13.88;57.33;101956.41;8385460;33;20461;-75
2021/10/09 09:41:48;;;;;;;32.78;18.85;;;;;;;14.14;56.40;101944.59;8378000;34;20134;-75
2021/10/09 09:47:03;;;;;;;36.65;20.65;;;;;;;14.68;55.25;101943.44;8351102;34;20691;-75
2021/10/09 09:52:29;;;;;;;31.45;19.50;;;;;;;15.02;54.01;101938.19;8374147;34;20416;-75
2021/10/09 09:57:35;;;;;;;34.08;19.65;;;;;;;15.39;53.33;101938.16;8373605;34;21134;-75
2021/10/09 10:02:44;;;;;;;33.58;19.40;;;;;;;15.25;52.16;101931.06;8379613;34;20192;-75
2021/10/09 10:07:49;;;;;;;32.05;17.88;;;;;;;15.45;51.97;101930.41;8381731;34;20489;-76
2021/10/09 10:12:57;;;;;;;33.42;21.23;;;;;;;15.45;52.23;101932.25;8361088;34;20663;-75
2021/10/09 10:18:00;;;;;;;29.60;18.55;;;;;;;15.63;51.32;101928.13;8383687;34;20174;-75
2021/10/09 10:23:05;;;;;;;30.98;18.65;;;;;;;15.69;51.60;101926.78;8380244;34;20565;-75
2021/10/09 10:28:13;;;;;;;32.85;18.80;;;;;;;16.38;51.89;101925.84;8379327;34;20430;-76
2021/10/09 10:33:46;;;;;;;28.10;17.52;;;;;;;16.71;50.01;101925.78;8378654;34;20455;-75
2021/10/09 10:38:56;;;;;;;30.95;18.25;;;;;;;17.42;46.93;101917.13;8377631;34;20142;-75
2021/10/09 10:44:00;;;;;;;26.92;14.85;;;;;;;17.05;46.51;101925.66;8377755;34;20418;-76
2021/10/09 10:49:06;;;;;;;28.42;15.02;;;;;;;16.48;47.13;101916.84;8375167;34;20628;-75
2021/10/09 10:54:30;;;;;;;29.02;15.68;;;;;;;16.96;48.20;101913.72;8370809;34;20457;-75
2021/10/09 10:59:35;;;;;;;26.38;14.73;;;;;;;17.90;46.68;101908.41;8368272;34;20300;-75
2021/10/09 11:04:41;;;;;;;24.77;13.63;;;;;;;18.01;45.13;101900.19;8365487;34;20431;-75
2021/10/09 11:09:48;;;;;;;21.45;12.75;;;;;;;17.69;44.09;101905.72;8366907;34;20437;-76
2021/10/09 11:15:00;;;;;;;28.00;13.02;;;;;;;17.91;43.63;101893.81;8367970;34;21013;-75
2021/10/09 11:20:06;;;;;;;18.50;11.88;;;;;;;17.81;44.05;101891.03;8371444;34;21052;-75
2021/10/09 11:25:23;;;;;;;18.55;12.25;;;;;;;18.60;42.73;101897.66;8371240;34;20468;-76
2021/10/09 11:30:28;;;;;;;18.17;11.05;;;;;;;18.51;42.57;101891.16;8366890;34;20220;-76
2021/10/09 11:35:35;;;;;;;19.10;11.65;;;;;;;19.14;40.83;101897.16;8365503;34;20543;-76
2021/10/09 11:40:43;;;;;;;18.23;11.30;;;;;;;19.13;39.95;101887.25;8370993;34;20154;-76
2021/10/09 11:45:54;;;;;;;17.38;11.82;;;;;;;19.16;39.46;101895.13;8369588;34;20450;-76
2021/10/09 11:56:20;;;;;;;14.50;10.60;;;;;;;21.15;36.40;101884.81;8368309;34;20586;-76
2021/10/09 12:01:33;;;;;;;16.80;12.35;;;;;;;21.83;35.08;101884.09;8366201;34;20555;-76
2021/10/09 12:06:48;;;;;;;21.08;10.93;;;;;;;22.22;34.95;101870.78;8371694;34;20492;-76
2021/10/09 12:12:15;;;;;;;20.08;12.10;;;;;;;23.87;33.39;101867.13;8366868;34;21772;-76
2021/10/09 12:17:20;;;;;;;15.02;10.60;;;;;;;23.79;31.68;101859.78;8368305;33;20141;-75
2021/10/09 12:22:23;;;;;;;15.73;11.80;;;;;;;23.38;32.80;101864.47;8403450;33;20426;-76
2021/10/09 12:27:38;;;;;;;18.98;11.77;;;;;;;23.57;33.77;101853.13;8399464;33;20423;-76
2021/10/09 12:32:43;;;;;;;16.10;11.25;;;;;;;23.64;32.88;101851.41;8422447;33;20213;-76
2021/10/09 12:37:58;;;;;;;20.02;12.27;;;;;;;24.14;33.34;101840.28;8421093;33;20908;-75
2021/10/09 12:43:02;;;;;;;18.75;12.63;;;;;;;24.24;32.11;101836.25;8421305;33;20181;-76
2021/10/09 12:48:06;;;;;;;19.52;12.82;;;;;;;23.37;33.45;101830.72;8425521;33;20436;-76
2021/10/09 12:53:11;;;;;;;16.92;11.68;;;;;;;22.96;35.49;101835.34;8430807;33;20142;-76
2021/10/09 12:58:16;;;;;;;12.98;10.18;;;;;;;22.57;34.97;101822.28;8431118;33;20245;-76
2021/10/09 13:03:19;;;;;;;20.30;12.18;;;;;;;22.65;34.42;101825.03;8431670;33;20138;-76
2021/10/09 13:08:22;;;;;;;14.75;10.48;;;;;;;23.03;34.33;101808.09;8432106;33;20604;-76
2021/10/09 13:13:26;;;;;;;16.23;11.07;;;;;;;24.30;32.57;101810.00;8430526;33;20944;-76
2021/10/09 13:18:29;;;;;;;16.90;10.50;;;;;;;26.19;31.21;101806.25;8424241;33;20436;-76
2021/10/09 13:23:48;;;;;;;18.98;10.80;;;;;;;27.25;28.03;101803.72;8418417;33;20540;-75
2021/10/09 13:28:53;;;;;;;10.80;7.38;;;;;;;28.03;27.12;101799.78;8400267;33;20868;-76
2021/10/09 13:33:57;;;;;;;17.58;9.10;;;;;;;27.63;26.55;101795.94;8425568;33;20160;-76
2021/10/09 13:39:00;;;;;;;11.35;8.15;;;;;;;28.06;27.00;101790.22;8429326;33;20261;-76
2021/10/09 13:44:05;;;;;;;12.43;9.48;;;;;;;27.97;26.36;101789.53;8428863;33;20519;-77
2021/10/09 13:49:08;;;;;;;13.18;9.45;;;;;;;27.84;27.22;101787.56;8428771;33;20181;-76
2021/10/09 13:54:11;;;;;;;11.95;9.70;;;;;;;28.15;26.86;101775.16;8427440;33;20420;-76
2021/10/09 13:59:15;;;;;;;16.70;9.85;;;;;;;27.48;26.60;101775.88;8423399;33;20467;-76
2021/10/09 14:04:19;;;;;;;12.05;7.80;;;;;;;27.39;26.98;101776.03;8424465;33;20412;-76
2021/10/09 14:09:22;;;;;;;8.75;7.03;;;;;;;27.67;25.50;101764.09;8404612;33;20885;-76
2021/10/09 14:14:26;;;;;;;11.30;8.15;;;;;;;27.02;25.75;101762.63;8429178;33;20141;-76
2021/10/09 14:19:30;;;;;;;12.32;9.85;;;;;;;26.21;27.25;101765.63;8429917;33;20130;-76
2021/10/09 14:24:33;;;;;;;12.55;8.60;;;;;;;26.46;28.84;101763.38;8435848;33;20166;-75
2021/10/09 14:29:37;;;;;;;11.75;9.27;;;;;;;25.80;28.13;101763.44;8433895;33;20149;-76
2021/10/09 14:34:40;;;;;;;12.07;8.50;;;;;;;25.06;29.45;101755.16;8418387;33;21089;-77
2021/10/09 14:39:44;;;;;;;13.73;7.90;;;;;;;25.13;29.31;101748.72;8401239;33;20471;-76
2021/10/09 14:44:49;;;;;;;13.82;7.85;;;;;;;24.50;30.98;101742.56;8395117;33;20957;-75
2021/10/09 14:49:55;;;;;;;11.23;7.97;;;;;;;23.55;32.61;101737.25;8413222;33;20476;-75
2021/10/09 15:16:45;;;;;;;20.92;8.65;;;;;;;20.57;37.81;101746.88;8404573;33;20218;-75
2021/10/09 15:21:49;;;;;;;15.48;8.27;;;;;;;20.37;38.27;101740.69;8423601;33;20207;-75
2021/10/09 15:26:52;;;;;;;13.15;8.63;;;;;;;19.97;38.37;101747.44;8420968;33;20316;-75
2021/10/09 15:31:56;;;;;;;16.55;9.05;;;;;;;19.60;39.31;101739.31;8424767;33;22737;-76
2021/10/09 15:36:59;;;;;;;13.95;9.30;;;;;;;18.77;41.15;101745.38;8400663;33;20189;-75
2021/10/09 15:42:03;;;;;;;12.50;8.90;;;;;;;18.47;41.97;101750.97;8392624;33;20265;-76
2021/10/09 15:47:08;;;;;;;12.73;8.50;;;;;;;18.37;42.80;101745.53;8381365;33;20851;-76
2021/10/09 15:52:11;;;;;;;15.18;10.18;;;;;;;17.92;43.91;101737.88;8389734;33;20978;-75
2021/10/09 15:57:14;;;;;;;16.00;9.63;;;;;;;17.39;44.99;101738.13;8390402;33;20432;-76
2021/10/09 16:02:19;;;;;;;19.17;9.95;;;;;;;17.19;45.72;101743.44;8378525;34;20978;-75
2021/10/09 16:07:22;;;;;;;16.75;9.90;;;;;;;16.64;47.20;101744.63;8375630;34;20569;-75
2021/10/09 16:12:25;;;;;;;18.95;11.10;;;;;;;16.17;47.60;101744.06;8376303;34;21057;-75
2021/10/09 16:17:32;;;;;;;17.13;10.73;;;;;;;15.79;49.01;101748.06;8374244;34;20423;-75
2021/10/09 16:22:35;;;;;;;21.35;11.30;;;;;;;15.42;49.68;101742.94;8375142;34;20194;-75
2021/10/09 16:27:38;;;;;;;18.08;11.00;;;;;;;14.79;51.58;101740.63;8381355;34;20429;-75
2021/10/09 16:32:43;;;;;;;20.80;11.85;;;;;;;14.30;52.20;101752.44;8382661;34;20428;-76
2021/10/09 16:37:46;;;;;;;18.20;11.32;;;;;;;13.91;52.72;101756.28;8400072;33;20181;-74
2021/10/09 16:42:49;;;;;;;20.63;11.35;;;;;;;13.63;53.20;101750.19;8420777;33;20165;-75
2021/10/09 16:47:53;;;;;;;15.52;10.38;;;;;;;13.31;53.13;101757.00;8395043;33;20956;-76
2021/10/09 16:52:58;;;;;;;17.08;10.07;;;;;;;13.07;52.79;101759.59;8378014;34;20412;-76
2021/10/09 16:58:02;;;;;;;16.98;9.48;;;;;;;12.92;52.55;101762.41;8375986;33;20306;-76
2021/10/09 17:03:06;;;;;;;15.63;9.05;;;;;;;12.78;52.62;101759.75;8367806;34;20425;-76
2021/10/09 17:08:09;;;;;;;13.38;8.40;;;;;;;12.56;52.92;101765.75;8366688;34;20226;-76
2021/10/09 17:13:12;;;;;;;20.33;8.52;;;;;;;12.42;53.38;101769.38;8367669;34;20466;-75
2021/10/09 17:18:16;;;;;;;19.08;9.40;;;;;;;12.28;53.61;101773.00;8365539;34;20526;-76
2021/10/09 17:23:20;;;;;;;15.80;9.35;;;;;;;12.12;54.00;101774.94;8367605;34;20523;-76
2021/10/09 17:28:23;;;;;;;16.17;9.35;;;;;;;11.94;54.15;101782.41;8368361;34;20292;-76
2021/10/09 17:33:28;;;;;;;15.52;9.30;;;;;;;11.82;54.46;101780.50;8369148;34;20173;-76
2021/10/09 17:38:31;;;;;;;21.60;10.68;;;;;;;11.54;57.35;101782.25;8367574;34;20181;-76
2021/10/09 17:43:34;;;;;;;12.13;8.65;;;;;;;10.99;59.47;101789.19;8307133;34;20152;-75
2021/10/09 17:48:39;;;;;;;13.82;8.50;;;;;;;10.76;59.64;101793.25;8306917;34;20529;-75
2021/10/09 17:53:42;;;;;;;16.38;9.48;;;;;;;10.70;59.64;101790.94;8312005;34;20261;-75
2021/10/09 17:58:45;;;;;;;21.13;11.23;;;;;;;10.59;60.36;101796.09;8319456;34;20241;-76
2021/10/09 18:03:50;;;;;;;16.70;9.40;;;;;;;10.70;59.94;101795.47;8334785;34;20186;-75
2021/10/09 18:08:54;;;;;;;23.05;14.82;;;;;;;10.56;59.64;101794.44;8361360;33;20441;-75
2021/10/09 18:13:57;;;;;;;28.75;18.65;;;;;;;10.53;58.92;101799.13;8424081;33;20601;-75
2021/10/09 18:19:01;;;;;;;25.60;16.83;;;;;;;10.52;57.83;101800.09;8420253;33;20635;-75
2021/10/09 18:24:05;;;;;;;23.92;16.48;;;;;;;10.47;57.62;101794.97;8408999;33;20431;-76
2021/10/09 18:29:09;;;;;;;22.30;14.15;;;;;;;10.43;57.83;101792.56;8430324;33;20204;-77
2021/10/09 18:34:13;;;;;;;22.27;13.52;;;;;;;10.38;58.06;101795.50;8428084;33;20433;-75
2021/10/09 18:39:16;;;;;;;21.20;12.95;;;;;;;10.11;59.03;101793.44;8427176;33;20922;-75
2021/10/09 18:44:19;;;;;;;17.90;12.75;;;;;;;10.06;59.35;101790.16;8404056;33;20423;-75
2021/10/09 18:49:24;;;;;;;19.35;11.77;;;;;;;10.04;58.80;101800.13;8424707;33;20418;-74
2021/10/09 18:54:27;;;;;;;19.10;12.05;;;;;;;9.95;58.33;101792.59;8394826;33;20425;-75
2021/10/09 18:59:30;;;;;;;20.40;11.43;;;;;;;9.83;59.81;101804.00;8372936;33;20714;-74
2021/10/09 19:04:34;;;;;;;65.72;35.60;;;;;;;9.15;62.48;101794.22;8351629;33;20261;-75
2021/10/09 19:09:37;;;;;;;35.58;22.63;;;;;;;8.89;64.16;101792.91;8379165;34;20474;-74
2021/10/09 19:14:41;;;;;;;30.05;18.05;;;;;;;9.08;62.73;101794.59;8426885;33;20547;-75
2021/10/09 19:19:48;;;;;;;23.15;16.88;;;;;;;9.21;61.66;101796.56;8386844;33;20413;-75
2021/10/09 19:24:52;;;;;;;20.67;13.23;;;;;;;9.01;62.93;101799.44;8342084;34;20481;-76
2021/10/09 19:29:56;;;;;;;20.58;11.48;;;;;;;8.61;64.09;101802.34;8387484;34;20429;-75
2021/10/09 19:35:06;;;;;;;19.55;12.45;;;;;;;8.38;64.87;101807.94;8379933;34;20424;-77
2021/10/09 19:40:12;;;;;;;24.45;14.85;;;;;;;8.48;64.47;101805.72;8370269;34;20185;-76
2021/10/09 19:45:16;;;;;;;20.55;13.88;;;;;;;8.41;64.27;101799.75;8375183;34;20578;-78
2021/10/09 19:50:23;;;;;;;27.50;14.85;;;;;;;8.50;63.91;101802.03;8375996;34;20264;-76
2021/10/09 19:55:32;;;;;;;22.17;13.63;;;;;;;8.59;63.17;101798.88;8372057;34;20185;-77
2021/10/09 20:00:36;;;;;;;20.30;12.65;;;;;;;8.68;62.58;101800.22;8374271;34;20463;-76
2021/10/09 20:05:43;;;;;;;19.98;12.38;;;;;;;8.72;62.15;101796.47;8377585;34;21096;-75
2021/10/09 20:10:55;;;;;;;21.00;12.63;;;;;;;8.76;62.00;101802.53;8374676;34;20426;-75
2021/10/09 20:16:01;;;;;;;20.60;12.23;;;;;;;8.73;62.07;101794.63;8358267;34;20426;-75
2021/10/09 20:21:07;;;;;;;18.10;11.20;;;;;;;8.72;62.20;101801.81;8406580;27;21056;-74
2021/10/09 20:26:11;;;;;;;22.08;12.95;;;;;;;8.68;62.65;101797.53;8413055;34;20494;-75
2021/10/09 20:31:14;;;;;;;20.50;13.32;;;;;;;8.61;62.69;101791.63;8408251;34;20692;-76
2021/10/09 20:36:20;;;;;;;21.90;13.73;;;;;;;8.64;62.73;101797.75;8411436;34;20150;-75
2021/10/09 20:41:24;;;;;;;28.20;13.15;;;;;;;8.56;62.93;101799.03;8416360;34;20135;-75
2021/10/09 20:46:28;;;;;;;21.20;12.68;;;;;;;8.50;63.06;101798.47;8394172;34;20217;-75
2021/10/09 20:51:34;;;;;;;21.55;12.57;;;;;;;8.52;63.05;101799.25;8427609;34;20150;-76
2021/10/09 20:56:38;;;;;;;18.58;11.93;;;;;;;8.33;63.51;101799.25;8417368;34;20445;-74
2021/10/09 21:01:42;;;;;;;17.55;11.90;;;;;;;8.18;64.01;101795.53;8414694;34;20544;-75
2021/10/09 21:06:47;;;;;;;25.23;14.40;;;;;;;8.04;64.70;101795.34;8416788;34;20555;-75
2021/10/09 21:11:58;;;;;;;24.30;14.18;;;;;;;8.01;65.18;101790.13;8413196;34;20155;-76
2021/10/09 21:22:30;;;;;;;22.50;12.38;;;;;;;7.89;65.72;101776.38;8419003;34;20410;-75
2021/10/09 21:27:49;;;;;;;26.17;14.02;;;;;;;7.98;65.31;101780.44;8406925;34;20139;-76
2021/10/09 21:32:58;;;;;;;26.60;14.35;;;;;;;7.99;65.12;101770.59;8382778;34;20415;-74
2021/10/09 21:38:04;;;;;;;22.63;13.02;;;;;;;7.94;65.08;101774.34;8421505;34;20425;-75
2021/10/09 21:43:08;;;;;;;25.30;14.95;;;;;;;7.84;65.96;101773.06;8400677;34;20197;-76
2021/10/09 21:48:24;;;;;;;23.00;13.90;;;;;;;7.93;65.67;101769.09;8440486;34;20155;-75
2021/10/09 21:53:30;;;;;;;23.50;13.85;;;;;;;7.89;65.67;101770.16;8420110;34;20939;-75
2021/10/09 21:58:40;;;;;;;23.52;13.40;;;;;;;7.86;65.67;101757.81;8443101;34;20427;-74
2021/10/09 22:20:05;;;;;;;21.38;12.55;;;;;;;7.60;65.20;101742.16;8402171;34;21055;-75
2021/10/09 22:36:30;;;;;;;17.17;10.45;;;;;;;7.43;65.27;101742.91;8340967;34;20459;-77
2021/10/09 22:41:39;;;;;;;17.85;10.15;;;;;;;7.39;64.80;101735.97;8368382;34;20162;-75
2021/10/09 22:46:55;;;;;;;17.13;10.13;;;;;;;7.39;65.14;101744.88;8392590;34;20466;-76
2021/10/09 22:51:59;;;;;;;19.70;10.95;;;;;;;7.30;64.76;101745.28;8391267;34;20151;-74
2021/10/09 22:57:04;;;;;;;18.48;11.35;;;;;;;7.23;65.20;101734.00;8398554;34;20151;-75
2021/10/09 23:02:09;;;;;;;17.40;9.93;;;;;;;7.14;65.52;101737.09;8450716;34;20245;-75
2021/10/09 23:07:18;;;;;;;17.10;10.73;;;;;;;7.11;65.77;101733.72;8421680;34;21029;-73
2021/10/09 23:12:32;;;;;;;17.45;11.07;;;;;;;7.00;65.58;101731.50;8445797;34;20201;-76
2021/10/09 23:17:36;;;;;;;16.67;11.07;;;;;;;6.92;65.84;101729.19;8443643;34;20428;-74
2021/10/09 23:22:56;;;;;;;19.45;10.75;;;;;;;6.78;66.34;101731.56;8436660;34;20158;-74
2021/10/09 23:28:04;;;;;;;17.42;9.43;;;;;;;6.83;65.91;101729.56;8432496;34;20437;-75
2021/10/09 23:33:09;;;;;;;15.15;9.88;;;;;;;6.87;65.68;101724.94;8434973;34;20994;-76
2021/10/09 23:38:12;;;;;;;15.38;9.85;;;;;;;6.88;65.34;101716.88;8412439;34;20155;-76
2021/10/09 23:43:16;;;;;;;13.10;9.32;;;;;;;6.90;65.31;101716.81;8402783;34;20154;-75
2021/10/09 23:48:20;;;;;;;16.17;8.82;;;;;;;6.87;64.24;101717.81;8420800;34;20921;-75
2021/10/09 23:53:23;;;;;;;15.60;8.93;;;;;;;6.81;64.61;101716.25;8419053;34;20554;-75
2021/10/09 23:58:33;;;;;;;14.77;8.82;;;;;;;6.79;64.53;101725.28;8397095;34;20639;-74
